createdAt,value
2023-11-22T00:01:52.945Z,103049.38
2023-11-22T00:04:19.502Z,103046.34
2023-11-22T00:06:46.016Z,103050.59
2023-11-22T00:09:12.742Z,103046.31
2023-11-22T00:11:39.213Z,103056.22
2023-11-22T00:14:06.019Z,103059.03
2023-11-22T00:16:33.058Z,103064.47
2023-11-22T00:18:59.558Z,103060.03
2023-11-22T00:21:26.400Z,103066.06
2023-11-22T00:23:52.844Z,103060.59
2023-11-22T00:26:19.481Z,103068.66
2023-11-22T00:28:46.049Z,103069.84
2023-11-22T00:31:15.875Z,103069.84
2023-11-22T00:33:42.652Z,103053.88
2023-11-22T00:36:09.271Z,103045.81
2023-11-22T00:38:37.218Z,103050.03
2023-11-22T00:41:03.890Z,103051.19
2023-11-22T00:43:30.459Z,103055.41
2023-11-22T00:45:58.215Z,103067.09
2023-11-22T00:48:24.722Z,103078.97
2023-11-22T00:50:51.950Z,103089.00
2023-11-22T00:53:19.553Z,103076.88
2023-11-22T00:55:46.113Z,103078.25
2023-11-22T00:58:13.022Z,103088.50
2023-11-22T01:00:39.462Z,103103.97
2023-11-22T01:03:06.524Z,103109.97
2023-11-22T01:05:33.219Z,103112.34
2023-11-22T01:07:59.817Z,103125.00
2023-11-22T01:10:26.306Z,103131.00
2023-11-22T01:12:52.810Z,103137.78
2023-11-22T01:15:19.381Z,103133.31
2023-11-22T01:17:46.567Z,103132.88
2023-11-22T01:20:13.982Z,103126.56
2023-11-22T01:22:40.652Z,103137.44
2023-11-22T01:25:07.422Z,103139.59
2023-11-22T01:27:33.914Z,103148.44
2023-11-22T01:30:00.384Z,103140.16
2023-11-22T01:32:26.838Z,103132.06
2023-11-22T01:34:53.269Z,103130.59
2023-11-22T01:37:19.691Z,103132.16
2023-11-22T01:39:46.201Z,103133.72
2023-11-22T01:42:12.695Z,103135.50
2023-11-22T01:44:39.152Z,103144.56
2023-11-22T01:47:06.075Z,103135.25
2023-11-22T01:49:32.864Z,103124.53
2023-11-22T01:51:59.467Z,103138.63
2023-11-22T01:54:26.158Z,103144.22
2023-11-22T01:56:52.715Z,103149.00
2023-11-22T01:59:19.347Z,103150.78
2023-11-22T02:01:46.207Z,103158.19
2023-11-22T02:04:15.870Z,103157.75
2023-11-22T02:06:42.741Z,103164.34
2023-11-22T02:09:14.464Z,103162.84
2023-11-22T02:11:43.144Z,103155.19
2023-11-22T02:14:10.245Z,103153.31
2023-11-22T02:16:38.082Z,103155.31
2023-11-22T02:19:06.223Z,103153.69
2023-11-22T02:21:32.644Z,103147.16
2023-11-22T02:23:59.120Z,103139.72
2023-11-22T02:26:26.010Z,103127.97
2023-11-22T02:28:52.524Z,103142.25
2023-11-22T02:31:19.146Z,103140.34
2023-11-22T02:33:45.568Z,103126.56
2023-11-22T02:36:13.862Z,103150.69
2023-11-22T02:38:41.568Z,103144.03
2023-11-22T02:41:08.101Z,103151.22
2023-11-22T02:43:34.591Z,103147.34
2023-11-22T02:46:01.101Z,103147.53
2023-11-22T02:48:27.602Z,103135.00
2023-11-22T02:50:55.349Z,103145.66
2023-11-22T02:53:22.602Z,103138.78
2023-11-22T02:55:49.937Z,103150.88
2023-11-22T02:58:17.415Z,103151.84
2023-11-22T03:00:44.677Z,103149.41
2023-11-22T03:03:12.736Z,103140.78
2023-11-22T03:05:39.317Z,103135.72
2023-11-22T03:08:08.296Z,103144.38
2023-11-22T03:10:34.971Z,103148.78
2023-11-22T03:13:01.432Z,103144.38
2023-11-22T03:15:28.015Z,103148.78
2023-11-22T03:17:55.515Z,103151.56
2023-11-22T03:20:22.449Z,103155.00
2023-11-22T03:22:51.598Z,103160.38
2023-11-22T03:25:18.962Z,103175.44
2023-11-22T03:27:45.480Z,103180.84
2023-11-22T03:30:13.145Z,103182.00
2023-11-22T03:32:40.776Z,103192.28
2023-11-22T03:35:08.717Z,103196.03
2023-11-22T03:37:35.681Z,103206.50
2023-11-22T03:40:02.334Z,103199.47
2023-11-22T03:42:29.023Z,103196.22
2023-11-22T03:44:55.743Z,103209.09
2023-11-22T03:47:22.494Z,103204.22
2023-11-22T03:49:48.974Z,103201.97
2023-11-22T03:52:15.491Z,103219.53
2023-11-22T03:54:41.963Z,103212.50
2023-11-22T03:57:08.494Z,103208.13
2023-11-22T03:59:35.869Z,103211.53
2023-11-22T04:02:02.386Z,103212.72
2023-11-22T04:04:28.899Z,103217.56
2023-11-22T04:06:55.458Z,103219.84
2023-11-22T04:09:21.951Z,103227.66
2023-11-22T04:11:48.566Z,103221.63
2023-11-22T04:14:15.274Z,103214.59
2023-11-22T04:16:42.131Z,103230.28
2023-11-22T04:19:08.945Z,103229.47
2023-11-22T04:21:35.761Z,103232.25
2023-11-22T04:24:02.330Z,103240.09
2023-11-22T04:26:28.810Z,103236.84
2023-11-22T04:28:55.544Z,103249.75
2023-11-22T04:31:22.067Z,103241.06
2023-11-22T04:33:48.726Z,103230.78
2023-11-22T04:36:15.217Z,103235.72
2023-11-22T04:38:41.679Z,103241.06
2023-11-22T04:41:08.874Z,103234.69
2023-11-22T04:43:35.368Z,103234.25
2023-11-22T04:46:01.864Z,103226.22
2023-11-22T04:48:28.495Z,103228.00
2023-11-22T04:50:54.978Z,103241.72
2023-11-22T04:53:21.522Z,103246.97
2023-11-22T04:55:47.986Z,103230.28
2023-11-22T04:58:14.413Z,103227.66
2023-11-22T05:00:40.917Z,103232.91
2023-11-22T05:03:07.689Z,103226.22
2023-11-22T05:05:34.377Z,103226.88
2023-11-22T05:08:00.933Z,103235.50
2023-11-22T05:10:27.457Z,103241.34
2023-11-22T05:12:53.986Z,103244.44
2023-11-22T05:15:20.651Z,103227.66
2023-11-22T05:17:47.304Z,103223.06
2023-11-22T05:20:13.827Z,103213.28
2023-11-22T05:22:40.319Z,103212.63
2023-11-22T05:25:08.206Z,103210.00
2023-11-22T05:27:34.841Z,103227.16
2023-11-22T05:30:02.113Z,103219.66
2023-11-22T05:32:30.317Z,103220.63
2023-11-22T05:34:56.961Z,103224.88
2023-11-22T05:37:24.952Z,103232.19
2023-11-22T05:39:52.216Z,103233.19
2023-11-22T05:42:19.157Z,103244.72
2023-11-22T05:44:45.713Z,103240.50
2023-11-22T05:47:14.137Z,103241.00
2023-11-22T05:49:40.749Z,103238.41
2023-11-22T05:52:07.275Z,103236.78
2023-11-22T05:54:33.742Z,103227.59
2023-11-22T05:57:00.207Z,103224.00
2023-11-22T05:59:26.864Z,103231.03
2023-11-22T06:01:53.390Z,103229.25
2023-11-22T06:04:20.330Z,103248.97
2023-11-22T06:06:50.042Z,103248.78
2023-11-22T06:09:16.640Z,103243.56
2023-11-22T06:11:43.259Z,103239.69
2023-11-22T06:14:09.838Z,103240.16
2023-11-22T06:16:36.485Z,103244.53
2023-11-22T06:19:02.982Z,103259.06
2023-11-22T06:21:29.609Z,103268.50
2023-11-22T06:23:59.654Z,103278.16
2023-11-22T06:26:26.509Z,103266.91
2023-11-22T06:28:53.024Z,103275.44
2023-11-22T06:31:20.006Z,103276.44
2023-11-22T06:33:46.631Z,103277.06
2023-11-22T06:36:15.366Z,103259.28
2023-11-22T06:38:41.988Z,103254.13
2023-11-22T06:41:08.445Z,103239.47
2023-11-22T06:43:34.957Z,103229.47
2023-11-22T06:46:02.254Z,103236.13
2023-11-22T06:48:42.713Z,103208.41
2023-11-22T06:51:09.182Z,103245.50
2023-11-22T06:53:35.806Z,103249.91
2023-11-22T06:56:02.814Z,103251.78
2023-11-22T06:58:29.223Z,103261.09
2023-11-22T07:00:56.330Z,103265.34
2023-11-22T07:03:23.013Z,103268.25
2023-11-22T07:05:49.679Z,103277.34
2023-11-22T07:08:19.796Z,103272.97
2023-11-22T07:10:46.473Z,103271.50
2023-11-22T07:13:13.903Z,103268.53
2023-11-22T07:15:41.952Z,103264.56
2023-11-22T07:18:11.043Z,103262.97
2023-11-22T07:20:38.265Z,103263.31
2023-11-22T07:23:04.805Z,103257.47
2023-11-22T07:25:32.642Z,103255.34
2023-11-22T07:28:00.345Z,103259.22
2023-11-22T07:30:31.753Z,103253.38
2023-11-22T07:33:00.413Z,103260.88
2023-11-22T07:35:29.382Z,103262.69
2023-11-22T07:37:56.124Z,103258.13
2023-11-22T07:40:23.581Z,103253.56
2023-11-22T07:42:50.513Z,103271.38
2023-11-22T07:45:18.119Z,103270.28
2023-11-22T07:47:45.140Z,103264.88
2023-11-22T07:50:15.040Z,103270.44
2023-11-22T07:52:42.802Z,103294.41
2023-11-22T07:55:10.877Z,103299.00
2023-11-22T07:57:40.319Z,103322.31
2023-11-22T08:00:08.679Z,103331.75
2023-11-22T08:02:37.920Z,103330.28
2023-11-22T08:05:09.443Z,103329.63
2023-11-22T08:07:39.812Z,103324.88
2023-11-22T08:10:10.850Z,103319.97
2023-11-22T08:12:40.222Z,103316.63
2023-11-22T08:15:06.941Z,103317.09
2023-11-22T08:17:33.646Z,103325.22
2023-11-22T08:20:01.291Z,103329.78
2023-11-22T08:22:30.098Z,103327.09
2023-11-22T08:24:58.465Z,103331.81
2023-11-22T08:27:24.949Z,103332.56
2023-11-22T08:29:51.697Z,103326.97
2023-11-22T08:32:19.959Z,103328.59
2023-11-22T08:34:46.701Z,103326.78
2023-11-22T08:37:13.139Z,103314.19
2023-11-22T08:39:40.312Z,103300.47
2023-11-22T08:42:10.453Z,103303.38
2023-11-22T08:44:37.764Z,103308.59
2023-11-22T08:47:04.574Z,103309.53
2023-11-22T08:49:31.342Z,103298.97
2023-11-22T08:51:58.031Z,103289.69
2023-11-22T08:54:24.559Z,103292.50
2023-11-22T08:56:51.148Z,103287.44
2023-11-22T08:59:17.795Z,103300.00
2023-11-22T09:01:46.586Z,103287.91
2023-11-22T09:04:13.050Z,103303.00
2023-11-22T09:06:39.542Z,103303.56
2023-11-22T09:09:06.462Z,103303.22
2023-11-22T09:11:35.686Z,103307.25
2023-11-22T09:14:05.950Z,103314.31
2023-11-22T09:16:40.073Z,103320.88
2023-11-22T09:19:09.650Z,103325.75
2023-11-22T09:21:36.241Z,103322.94
2023-11-22T09:24:03.396Z,103328.34
2023-11-22T09:26:30.642Z,103329.91
2023-11-22T09:28:59.949Z,103332.16
2023-11-22T09:31:27.522Z,103332.59
2023-11-22T09:33:54.139Z,103317.81
2023-11-22T09:36:20.643Z,103324.28
2023-11-22T09:38:48.260Z,103328.38
2023-11-22T09:41:17.191Z,103332.06
2023-11-22T09:43:45.165Z,103329.09
2023-11-22T09:46:13.094Z,103322.97
2023-11-22T09:48:40.900Z,103309.78
2023-11-22T09:51:18.987Z,103297.34
2023-11-22T09:53:52.910Z,103301.03
2023-11-22T09:56:19.939Z,103301.75
2023-11-22T09:58:46.515Z,103300.41
2023-11-22T10:01:14.619Z,103298.22
2023-11-22T10:03:41.572Z,103286.69
2023-11-22T10:06:08.493Z,103290.66
2023-11-22T10:08:37.045Z,103287.50
2023-11-22T10:11:05.387Z,103304.00
2023-11-22T10:13:32.129Z,103308.97
2023-11-22T10:16:13.390Z,103297.78
2023-11-22T10:18:42.919Z,103299.97
2023-11-22T10:21:23.953Z,103296.81
2023-11-22T10:23:52.861Z,103292.63
2023-11-22T10:26:19.819Z,103285.84
2023-11-22T10:28:46.384Z,103284.59
2023-11-22T10:31:12.941Z,103276.16
2023-11-22T10:33:43.567Z,103263.69
2023-11-22T10:36:10.633Z,103264.34
2023-11-22T10:38:37.413Z,103269.75
2023-11-22T10:41:08.806Z,103261.78
2023-11-22T10:43:39.262Z,103264.19
2023-11-22T10:46:06.227Z,103255.38
2023-11-22T10:48:36.840Z,103250.13
2023-11-22T10:51:07.328Z,103250.41
2023-11-22T10:53:35.764Z,103248.69
2023-11-22T10:56:12.912Z,103242.28
2023-11-22T10:58:48.990Z,103214.75
2023-11-22T11:01:23.409Z,103205.44
2023-11-22T11:04:07.922Z,103202.91
2023-11-22T11:06:35.641Z,103201.59
2023-11-22T11:09:06.704Z,103203.00
2023-11-22T11:11:34.977Z,103184.00
2023-11-22T11:14:03.142Z,103190.88
2023-11-22T11:16:32.396Z,103179.97
2023-11-22T11:18:59.610Z,103178.03
2023-11-22T11:21:26.808Z,103172.72
2023-11-22T11:23:57.831Z,103172.19
2023-11-22T11:26:27.007Z,103179.84
2023-11-22T11:28:56.283Z,103172.66
2023-11-22T11:31:23.839Z,103168.66
2023-11-22T11:33:50.914Z,103164.28
2023-11-22T11:36:32.814Z,103164.47
2023-11-22T11:39:04.891Z,103162.88
2023-11-22T11:41:34.796Z,103168.97
2023-11-22T11:44:05.562Z,103164.13
2023-11-22T11:46:32.513Z,103156.25
2023-11-22T11:48:59.124Z,103150.59
2023-11-22T11:51:28.028Z,103162.75
2023-11-22T11:53:55.529Z,103155.53
2023-11-22T11:56:22.249Z,103153.75
2023-11-22T11:58:53.434Z,103141.81
2023-11-22T12:01:23.822Z,103129.91
2023-11-22T12:03:52.204Z,103135.38
2023-11-22T12:06:21.148Z,103140.00
2023-11-22T12:08:48.528Z,103138.97
2023-11-22T12:11:17.334Z,103128.34
2023-11-22T12:13:51.788Z,103131.56
2023-11-22T12:16:19.445Z,103131.38
2023-11-22T12:18:49.280Z,103129.56
2023-11-22T12:21:17.398Z,103117.47
2023-11-22T12:23:45.055Z,103109.41
2023-11-22T12:26:21.606Z,103093.28
2023-11-22T12:29:00.109Z,103101.13
2023-11-22T12:31:36.099Z,103105.38
2023-11-22T12:34:03.861Z,103094.72
2023-11-22T12:36:30.524Z,103084.66
2023-11-22T12:38:59.403Z,103089.69
2023-11-22T12:41:27.956Z,103093.50
2023-11-22T12:44:05.546Z,103080.97
2023-11-22T12:46:56.859Z,103072.47
2023-11-22T12:49:24.393Z,103076.09
2023-11-22T12:51:52.265Z,103083.56
2023-11-22T12:54:21.663Z,103073.72
2023-11-22T12:56:59.513Z,103069.47
2023-11-22T12:59:31.411Z,103060.22
2023-11-22T13:01:58.925Z,103054.75
2023-11-22T13:04:25.697Z,103050.72
2023-11-22T13:06:52.881Z,103051.34
2023-11-22T13:09:19.372Z,103041.88
2023-11-22T13:11:46.837Z,103047.50
2023-11-22T13:14:16.443Z,103054.16
2023-11-22T13:16:43.909Z,103051.09
2023-11-22T13:19:11.511Z,103045.88
2023-11-22T13:21:38.019Z,103030.34
2023-11-22T13:24:06.125Z,103033.16
2023-11-22T13:26:32.697Z,103020.44
2023-11-22T13:29:00.106Z,102996.44
2023-11-22T13:31:26.657Z,103021.28
2023-11-22T13:33:53.157Z,103019.66
2023-11-22T13:36:19.627Z,103022.47
2023-11-22T13:38:46.128Z,103022.47
2023-11-22T13:41:12.640Z,103034.38
2023-11-22T13:43:40.700Z,103020.06
2023-11-22T13:46:11.163Z,103003.72
2023-11-22T13:48:37.747Z,103019.25
2023-11-22T13:51:07.159Z,103021.88
2023-11-22T13:53:37.760Z,103009.16
2023-11-22T13:56:09.930Z,102990.63
2023-11-22T13:58:37.046Z,102997.06
2023-11-22T14:01:07.248Z,102989.81
2023-11-22T14:03:34.581Z,102990.03
2023-11-22T14:06:02.023Z,102990.22
2023-11-22T14:08:28.757Z,102972.25
2023-11-22T14:10:55.478Z,102956.72
2023-11-22T14:13:22.624Z,102966.03
2023-11-22T14:15:49.674Z,102969.06
2023-11-22T14:18:16.331Z,102970.25
2023-11-22T14:20:42.865Z,102970.44
2023-11-22T14:23:09.455Z,102969.63
2023-11-22T14:25:36.087Z,102954.50
2023-11-22T14:28:02.580Z,102949.28
2023-11-22T14:30:31.808Z,102954.50
2023-11-22T14:33:00.798Z,102928.69
2023-11-22T14:35:28.880Z,102946.03
2023-11-22T14:37:55.744Z,102954.31
2023-11-22T14:40:22.659Z,102945.44
2023-11-22T14:42:51.563Z,102941.56
2023-11-22T14:45:20.865Z,102945.41
2023-11-22T14:47:47.587Z,102937.78
2023-11-22T14:50:16.846Z,102931.50
2023-11-22T14:52:45.153Z,102945.19
2023-11-22T14:55:13.727Z,102962.31
2023-11-22T14:57:40.581Z,102972.81
2023-11-22T15:00:10.991Z,102975.44
2023-11-22T15:02:37.704Z,102971.97
2023-11-22T15:05:05.869Z,102987.53
2023-11-22T15:07:36.825Z,102965.59
2023-11-22T15:10:03.359Z,102971.44
2023-11-22T15:12:31.641Z,102972.44
2023-11-22T15:14:58.227Z,102959.72
2023-11-22T15:17:24.764Z,102971.00
2023-11-22T15:19:51.426Z,102967.56
2023-11-22T15:22:17.992Z,102952.03
2023-11-22T15:24:45.582Z,102953.84
2023-11-22T15:27:12.081Z,102954.84
2023-11-22T15:29:38.569Z,102953.63
2023-11-22T15:32:05.906Z,102943.13
2023-11-22T15:34:32.459Z,102933.50
2023-11-22T15:36:59.096Z,102935.09
2023-11-22T15:39:25.703Z,102911.94
2023-11-22T15:41:52.585Z,102905.88
2023-11-22T15:44:19.070Z,102908.69
2023-11-22T15:46:45.559Z,102912.34
2023-11-22T15:49:12.074Z,102888.94
2023-11-22T15:51:38.574Z,102897.19
2023-11-22T15:54:05.481Z,102893.97
2023-11-22T15:56:32.159Z,102900.00
2023-11-22T15:59:01.879Z,102895.97
2023-11-22T16:01:29.016Z,102902.25
2023-11-22T16:03:55.791Z,102888.94
2023-11-22T16:06:23.830Z,102880.03
2023-11-22T16:08:50.610Z,102881.25
2023-11-22T16:11:17.234Z,102853.81
2023-11-22T16:13:45.582Z,102869.53
2023-11-22T16:16:12.877Z,102862.72
2023-11-22T16:18:40.148Z,102850.59
2023-11-22T16:21:08.714Z,102843.31
2023-11-22T16:23:36.432Z,102860.88
2023-11-22T16:26:05.764Z,102876.19
2023-11-22T16:28:37.013Z,102864.28
2023-11-22T16:31:06.186Z,102853.81
2023-11-22T16:33:34.964Z,102860.44
2023-11-22T16:36:02.702Z,102838.69
2023-11-22T16:38:29.201Z,102856.44
2023-11-22T16:40:57.727Z,102859.06
2023-11-22T16:43:24.172Z,102850.81
2023-11-22T16:45:52.549Z,102836.88
2023-11-22T16:48:19.247Z,102834.69
2023-11-22T16:50:47.178Z,102835.69
2023-11-22T16:53:15.999Z,102835.28
2023-11-22T16:55:44.334Z,102819.53
2023-11-22T16:58:11.831Z,102831.66
2023-11-22T17:00:38.393Z,102848.19
2023-11-22T17:03:05.066Z,102836.09
2023-11-22T17:05:31.654Z,102835.69
2023-11-22T17:07:58.318Z,102830.66
2023-11-22T17:10:44.907Z,102858.66
2023-11-22T17:13:12.374Z,102846.59
2023-11-22T17:15:40.985Z,102832.06
2023-11-22T17:18:08.277Z,102833.69
2023-11-22T17:20:35.988Z,102842.53
2023-11-22T17:23:02.482Z,102842.16
2023-11-22T17:25:30.196Z,102830.03
2023-11-22T17:27:59.681Z,102833.69
2023-11-22T17:30:26.397Z,102827.63
2023-11-22T17:32:53.519Z,102828.69
2023-11-22T17:35:21.478Z,102824.44
2023-11-22T17:37:48.469Z,102819.97
2023-11-22T17:40:15.657Z,102814.75
2023-11-22T17:42:42.200Z,102821.63
2023-11-22T17:45:10.149Z,102800.03
2023-11-22T17:47:37.295Z,102799.03
2023-11-22T17:50:05.843Z,102803.28
2023-11-22T17:52:32.815Z,102803.88
2023-11-22T17:54:59.623Z,102809.13
2023-11-22T17:57:26.147Z,102807.72
2023-11-22T17:59:52.635Z,102812.34
2023-11-22T18:02:19.136Z,102820.00
2023-11-22T18:04:45.619Z,102796.22
2023-11-22T18:07:15.409Z,102801.88
2023-11-22T18:09:42.713Z,102796.63
2023-11-22T18:12:11.680Z,102779.50
2023-11-22T18:14:38.235Z,102793.22
2023-11-22T18:17:04.737Z,102788.75
2023-11-22T18:19:31.938Z,102774.06
2023-11-22T18:21:59.163Z,102774.88
2023-11-22T18:24:28.173Z,102784.56
2023-11-22T18:26:55.850Z,102772.06
2023-11-22T18:29:23.049Z,102752.50
2023-11-22T18:31:51.195Z,102750.69
2023-11-22T18:34:17.665Z,102729.13
2023-11-22T18:36:44.131Z,102752.50
2023-11-22T18:39:10.789Z,102753.72
2023-11-22T18:41:39.871Z,102739.59
2023-11-22T18:44:06.557Z,102738.59
2023-11-22T18:46:33.014Z,102743.22
2023-11-22T18:48:59.931Z,102733.34
2023-11-22T18:51:26.383Z,102742.59
2023-11-22T18:53:53.196Z,102746.44
2023-11-22T18:56:19.786Z,102753.91
2023-11-22T18:58:46.335Z,102742.22
2023-11-22T19:01:12.844Z,102756.53
2023-11-22T19:03:39.289Z,102735.97
2023-11-22T19:06:07.990Z,102721.22
2023-11-22T19:08:34.611Z,102728.31
2023-11-22T19:11:01.172Z,102719.00
2023-11-22T19:13:30.786Z,102715.00
2023-11-22T19:15:59.422Z,102707.13
2023-11-22T19:18:26.169Z,102697.44
2023-11-22T19:20:55.059Z,102713.97
2023-11-22T19:23:21.597Z,102717.19
2023-11-22T19:25:48.352Z,102703.66
2023-11-22T19:28:14.841Z,102707.72
2023-11-22T19:30:41.400Z,102713.56
2023-11-22T19:33:08.090Z,102701.66
2023-11-22T19:35:36.114Z,102684.72
2023-11-22T19:38:05.811Z,102695.97
2023-11-22T19:40:33.087Z,102689.75
2023-11-22T19:42:59.601Z,102686.31
2023-11-22T19:45:26.029Z,102684.50
2023-11-22T19:47:52.756Z,102681.66
2023-11-22T19:50:21.187Z,102676.63
2023-11-22T19:52:47.689Z,102678.25
2023-11-22T19:55:14.749Z,102669.16
2023-11-22T19:57:44.154Z,102688.75
2023-11-22T20:00:11.597Z,102676.03
2023-11-22T20:02:38.591Z,102673.41
2023-11-22T20:05:05.707Z,102679.66
2023-11-22T20:07:32.221Z,102671.00
2023-11-22T20:10:01.588Z,102669.94
2023-11-22T20:12:28.528Z,102667.75
2023-11-22T20:14:55.866Z,102684.09
2023-11-22T20:17:22.374Z,102686.13
2023-11-22T20:19:49.689Z,102688.94
2023-11-22T20:22:16.244Z,102681.84
2023-11-22T20:24:43.060Z,102675.41
2023-11-22T20:27:09.685Z,102681.06
2023-11-22T20:29:36.947Z,102676.63
2023-11-22T20:32:03.698Z,102660.50
2023-11-22T20:34:31.082Z,102658.25
2023-11-22T20:36:57.552Z,102647.38
2023-11-22T20:39:24.194Z,102653.00
2023-11-22T20:41:50.680Z,102661.84
2023-11-22T20:44:17.801Z,102650.97
2023-11-22T20:46:45.324Z,102648.34
2023-11-22T20:49:12.678Z,102641.88
2023-11-22T20:51:39.260Z,102640.88
2023-11-22T20:54:05.803Z,102651.72
2023-11-22T20:56:32.287Z,102650.53
2023-11-22T20:58:58.739Z,102638.44
2023-11-22T21:01:25.280Z,102640.81
2023-11-22T21:03:51.998Z,102630.16
2023-11-22T21:06:19.289Z,102646.03
2023-11-22T21:08:46.700Z,102625.25
2023-11-22T21:11:14.362Z,102633.91
2023-11-22T21:13:41.213Z,102636.09
2023-11-22T21:16:09.501Z,102629.44
2023-11-22T21:18:38.158Z,102622.16
2023-11-22T21:21:07.927Z,102610.25
2023-11-22T21:23:34.534Z,102624.94
2023-11-22T21:26:02.609Z,102605.56
2023-11-22T21:28:29.066Z,102606.75
2023-11-22T21:30:55.529Z,102618.03
2023-11-22T21:33:22.071Z,102607.53
2023-11-22T21:35:48.623Z,102612.38
2023-11-22T21:38:15.231Z,102620.41
2023-11-22T21:40:42.883Z,102607.06
2023-11-22T21:43:09.476Z,102600.25
2023-11-22T21:45:36.101Z,102602.19
2023-11-22T21:48:03.488Z,102598.13
2023-11-22T21:50:30.132Z,102597.09
2023-11-22T21:52:56.618Z,102591.84
2023-11-22T21:55:23.075Z,102589.41
2023-11-22T21:57:49.588Z,102591.59
2023-11-22T22:00:16.456Z,102593.19
2023-11-22T22:02:43.153Z,102587.13
2023-11-22T22:05:09.757Z,102589.56
2023-11-22T22:07:36.310Z,102587.13
2023-11-22T22:10:02.807Z,102590.13
2023-11-22T22:12:29.234Z,102580.66
2023-11-22T22:14:55.823Z,102578.63
2023-11-22T22:17:22.360Z,102582.63
2023-11-22T22:19:48.924Z,102583.59
2023-11-22T22:22:15.700Z,102582.34
2023-11-22T22:24:42.131Z,102575.72
2023-11-22T22:27:08.622Z,102575.28
2023-11-22T22:29:35.180Z,102560.72
2023-11-22T22:32:01.683Z,102564.72
2023-11-22T22:34:28.115Z,102558.44
2023-11-22T22:36:57.631Z,102548.53
2023-11-22T22:39:24.981Z,102550.13
2023-11-22T22:41:52.030Z,102553.13
2023-11-22T22:44:18.562Z,102556.47
2023-11-22T22:46:45.384Z,102556.63
2023-11-22T22:49:12.157Z,102558.84
2023-11-22T22:51:38.925Z,102559.41
2023-11-22T22:54:06.099Z,102547.88
2023-11-22T22:56:32.635Z,102547.44
2023-11-22T22:58:59.172Z,102544.59
2023-11-22T23:01:25.734Z,102536.91
2023-11-22T23:03:52.290Z,102539.69
2023-11-22T23:06:26.351Z,102556.78
2023-11-22T23:08:53.807Z,102554.72
2023-11-22T23:11:21.684Z,102552.69
2023-11-22T23:13:48.837Z,102556.50
2023-11-22T23:16:15.437Z,102553.44
2023-11-22T23:18:45.246Z,102555.38
2023-11-22T23:21:13.279Z,102544.28
2023-11-22T23:23:39.877Z,102546.69
2023-11-22T23:26:06.435Z,102554.94
2023-11-22T23:28:33.809Z,102550.25
2023-11-22T23:31:00.798Z,102538.94
2023-11-22T23:33:27.401Z,102534.03
2023-11-22T23:35:54.463Z,102525.50
2023-11-22T23:38:22.247Z,102536.59
2023-11-22T23:40:48.958Z,102532.72
2023-11-22T23:43:17.975Z,102534.53
2023-11-22T23:45:45.048Z,102532.84
2023-11-22T23:48:14.315Z,102529.75
2023-11-22T23:50:41.247Z,102517.66
2023-11-22T23:53:07.747Z,102513.19
2023-11-22T23:55:34.246Z,102536.75
2023-11-22T23:58:01.176Z,102519.16
